Clarkton, North Carolina
Current Conditions -  °F | °C
As of 10:15 AM on Wednesday 22 Oct 2014 (Local Time) from KEYF Reporting Station
Clear Clear  
Wind Chill: 56°   Ceiling: Unl
Heat Index: 56°   Visibility: 10mi
Dew Point: 42°   Wind: 5mph
Humidity: 59%   Direction: 330°NNW
Pressure: 30"   Gusts: NA
Location:  34.49°N, 78.66°W
Report Text: KEYF 221415Z AUTO 33004KT 10SM CLR 14/06 A3000 RMK AO2 T01360056
Loading
Personal Weather Stations






























Interactive Weather Map New forecast layout! Learn more

10-Day Weather Forecast

Advertisements
Track Severe Weather on mobile